Time;durP1;ratioP1;P1;durP2;ratioP2;P2;SDS_P1;SDS_P2;PMS_P1;PMS_P2;Temp;Humidity;BMP_temperature;BMP_pressure;BME280_temperature;BME280_humidity;BME280_pressure;Samples;Min_cycle;Max_cycle;Signal;HPM_P1;HPM_P2
2023/02/18 00:00:07;;;;;;;6.53;3.87;;;9.40;99.90;;;;;;5058662;28;20201;-49
2023/02/18 00:02:35;;;;;;;9.03;6.17;;;9.30;99.90;;;;;;5053722;28;20247;-49
2023/02/18 00:05:02;;;;;;;5.20;4.80;;;9.30;99.90;;;;;;5060019;28;20661;-50
2023/02/18 00:07:36;;;;;;;7.33;4.00;;;9.30;99.90;;;;;;5061649;28;20626;-50
2023/02/18 00:10:04;;;;;;;6.03;3.60;;;9.30;99.90;;;;;;5051857;28;20203;-49
2023/02/18 00:12:31;;;;;;;4.03;3.53;;;9.40;99.90;;;;;;5049378;28;20269;-49
2023/02/18 00:14:58;;;;;;;4.40;3.20;;;9.40;99.90;;;;;;5048325;28;20261;-49
2023/02/18 00:17:26;;;;;;;4.50;2.53;;;9.40;99.90;;;;;;5048082;28;20592;-49
2023/02/18 00:19:53;;;;;;;4.70;2.57;;;9.30;99.90;;;;;;5061263;28;20260;-49
2023/02/18 00:22:19;;;;;;;2.50;2.30;;;9.30;99.90;;;;;;5055679;28;20224;-49
2023/02/18 00:24:48;;;;;;;2.53;2.33;;;9.30;99.90;;;;;;5057918;28;20203;-49
2023/02/18 00:27:15;;;;;;;6.70;3.27;;;9.30;99.90;;;;;;5055106;28;20265;-48
2023/02/18 00:29:42;;;;;;;9.70;6.37;;;9.20;99.90;;;;;;5051193;28;20354;-49
2023/02/18 00:32:09;;;;;;;6.70;4.50;;;9.20;99.90;;;;;;5052795;28;20228;-49
2023/02/18 00:34:36;;;;;;;4.10;2.67;;;9.20;99.90;;;;;;5050300;28;20250;-50
2023/02/18 00:37:03;;;;;;;3.87;2.67;;;9.20;99.90;;;;;;5064704;28;20200;-48
2023/02/18 00:39:30;;;;;;;10.20;4.23;;;9.20;99.90;;;;;;5052393;28;20227;-49
2023/02/18 00:41:58;;;;;;;4.90;3.40;;;9.20;99.90;;;;;;5045072;28;20254;-49
2023/02/18 00:44:25;;;;;;;5.20;4.60;;;9.30;99.90;;;;;;5048889;28;20654;-49
2023/02/18 00:46:52;;;;;;;4.00;3.70;;;9.30;99.90;;;;;;5055018;28;20670;-49
2023/02/18 00:49:19;;;;;;;7.10;4.03;;;9.20;99.90;;;;;;5060840;28;20310;-50
2023/02/18 00:51:46;;;;;;;7.63;3.80;;;9.20;99.90;;;;;;5049303;28;20831;-49
2023/02/18 00:54:13;;;;;;;6.70;4.40;;;9.10;99.90;;;;;;5059114;28;20195;-49
2023/02/18 00:56:39;;;;;;;8.23;5.27;;;9.10;99.90;;;;;;5063075;28;20204;-49
2023/02/18 00:59:08;;;;;;;9.47;4.63;;;9.00;99.90;;;;;;5065411;28;20195;-49
2023/02/18 01:01:35;;;;;;;4.53;4.07;;;9.00;99.90;;;;;;5054142;28;20767;-49
2023/02/18 01:04:02;;;;;;;6.17;3.93;;;9.00;99.90;;;;;;5065152;28;20197;-49
2023/02/18 01:06:29;;;;;;;4.80;3.97;;;9.00;99.90;;;;;;5067101;28;20544;-49
2023/02/18 01:08:56;;;;;;;5.47;3.73;;;8.90;99.90;;;;;;5061864;28;20215;-50
2023/02/18 01:11:23;;;;;;;5.27;4.53;;;9.00;99.90;;;;;;5057631;28;20709;-50
2023/02/18 01:13:50;;;;;;;6.47;3.73;;;8.90;99.90;;;;;;5067650;28;20224;-49
2023/02/18 01:16:19;;;;;;;5.27;4.23;;;8.90;99.90;;;;;;5051491;28;20198;-48
2023/02/18 01:18:46;;;;;;;7.10;4.27;;;8.90;99.90;;;;;;5066912;28;20203;-49
2023/02/18 01:21:13;;;;;;;3.83;3.53;;;8.90;99.90;;;;;;5060796;28;20286;-49
2023/02/18 01:23:41;;;;;;;4.67;4.27;;;8.90;99.90;;;;;;5051970;28;20207;-48
2023/02/18 01:26:08;;;;;;;4.80;3.53;;;8.80;99.90;;;;;;5053020;28;20698;-48
2023/02/18 01:28:35;;;;;;;4.27;3.87;;;8.80;99.90;;;;;;5053509;28;20293;-48
2023/02/18 01:31:06;;;;;;;5.93;3.83;;;8.80;99.90;;;;;;5058732;28;20235;-48
2023/02/18 01:33:35;;;;;;;4.23;3.30;;;8.80;99.90;;;;;;5063725;28;20210;-49
2023/02/18 01:36:02;;;;;;;5.13;4.03;;;8.70;99.90;;;;;;5054630;28;20207;-49
2023/02/18 01:38:29;;;;;;;3.60;3.40;;;8.70;99.90;;;;;;5052971;28;20191;-49
2023/02/18 01:40:56;;;;;;;7.30;4.27;;;8.60;99.90;;;;;;5057647;28;20619;-48
2023/02/18 01:43:24;;;;;;;4.80;4.30;;;8.60;99.90;;;;;;5050709;28;20735;-50
2023/02/18 01:46:03;;;;;;;6.80;4.50;;;8.50;99.90;;;;;;5057068;28;20265;-48
2023/02/18 01:48:36;;;;;;;5.63;4.30;;;8.60;99.90;;;;;;5052243;28;20220;-49
2023/02/18 01:51:07;;;;;;;7.30;5.37;;;8.50;99.90;;;;;;5045457;28;20223;-49
2023/02/18 01:53:39;;;;;;;4.00;3.70;;;8.50;99.90;;;;;;5052805;28;20618;-48
2023/02/18 01:56:11;;;;;;;5.63;4.23;;;8.40;99.90;;;;;;5058001;28;20272;-49
2023/02/18 01:58:38;;;;;;;5.57;4.20;;;8.30;99.90;;;;;;5058228;28;20201;-49
2023/02/18 02:01:06;;;;;;;5.30;4.70;;;8.30;99.90;;;;;;5053539;28;20227;-49
2023/02/18 02:03:34;;;;;;;5.17;4.50;;;8.30;99.90;;;;;;5055215;28;20627;-50
2023/02/18 02:06:01;;;;;;;4.20;3.93;;;8.30;99.90;;;;;;5063194;28;20199;-50
2023/02/18 02:08:29;;;;;;;5.03;4.23;;;8.30;99.90;;;;;;5062028;28;20214;-49
2023/02/18 02:11:17;;;;;;;4.07;3.73;;;8.30;99.90;;;;;;5059227;28;20250;-49
2023/02/18 02:14:08;;;;;;;6.10;4.27;;;8.20;99.90;;;;;;5045797;28;20253;-48
2023/02/18 02:16:43;;;;;;;4.30;4.00;;;8.20;99.90;;;;;;5048048;28;20208;-48
2023/02/18 02:19:38;;;;;;;4.97;4.20;;;8.10;99.90;;;;;;5051664;28;20237;-49
2023/02/18 02:22:37;;;;;;;5.40;4.30;;;8.10;99.90;;;;;;5048317;28;20274;-50
2023/02/18 02:25:16;;;;;;;6.33;4.67;;;8.10;99.90;;;;;;5049769;28;20204;-49
2023/02/18 02:28:30;;;;;;;9.37;5.27;;;8.10;99.90;;;;;;5052266;28;20206;-50
2023/02/18 02:31:27;;;;;;;7.37;5.17;;;8.00;99.90;;;;;;5003173;28;20267;-48
2023/02/18 02:34:39;;;;;;;8.70;5.50;;;8.00;99.90;;;;;;5054844;28;20261;-49
2023/02/18 02:37:12;;;;;;;11.07;5.77;;;8.00;99.90;;;;;;4988214;28;20205;-50
2023/02/18 02:39:47;;;;;;;7.00;5.53;;;7.90;99.90;;;;;;4986710;28;20675;-49
2023/02/18 02:42:20;;;;;;;6.50;5.27;;;7.90;99.90;;;;;;5024967;28;20215;-49
2023/02/18 02:44:55;;;;;;;4.93;4.43;;;7.90;99.90;;;;;;5058525;28;20630;-48
2023/02/18 02:47:34;;;;;;;5.90;4.73;;;7.80;99.90;;;;;;5050590;28;20207;-49
2023/02/18 02:50:06;;;;;;;6.83;4.20;;;7.90;99.90;;;;;;5049847;28;20221;-48
2023/02/18 02:52:40;;;;;;;6.20;5.57;;;7.80;99.90;;;;;;5063415;28;20223;-48
2023/02/18 02:55:09;;;;;;;7.73;4.77;;;7.80;99.90;;;;;;5059873;28;20264;-49
2023/02/18 02:57:50;;;;;;;7.27;4.90;;;7.70;99.90;;;;;;5051633;28;20253;-49
2023/02/18 03:00:20;;;;;;;5.17;4.67;;;7.70;99.90;;;;;;5051989;28;20212;-48
2023/02/18 03:03:15;;;;;;;7.27;5.20;;;7.60;99.90;;;;;;5050869;28;20219;-49
2023/02/18 03:06:00;;;;;;;6.47;5.20;;;7.50;99.90;;;;;;5053083;28;20200;-48
2023/02/18 03:08:40;;;;;;;7.93;6.07;;;7.40;99.90;;;;;;5063351;28;20216;-48
2023/02/18 03:11:10;;;;;;;7.43;5.53;;;7.40;99.90;;;;;;5047562;28;20295;-49
2023/02/18 03:13:48;;;;;;;6.47;5.10;;;7.40;99.90;;;;;;5059662;28;20265;-49
2023/02/18 03:16:26;;;;;;;8.53;5.00;;;7.30;99.90;;;;;;5047851;28;20205;-50
2023/02/18 03:19:01;;;;;;;6.60;4.77;;;7.30;99.90;;;;;;5052479;28;20191;-48
2023/02/18 03:21:33;;;;;;;9.83;5.53;;;7.10;99.90;;;;;;5046824;28;20219;-49
2023/02/18 03:24:05;;;;;;;5.97;5.47;;;7.00;99.90;;;;;;5053127;28;20606;-48
2023/02/18 03:26:34;;;;;;;9.00;4.57;;;6.90;99.90;;;;;;5050849;28;20198;-48
2023/02/18 03:29:04;;;;;;;8.53;4.43;;;6.80;99.90;;;;;;5048961;28;20267;-49
2023/02/18 03:31:34;;;;;;;9.10;5.17;;;6.70;99.90;;;;;;5057954;28;20277;-48
2023/02/18 03:34:05;;;;;;;7.57;5.97;;;6.70;99.90;;;;;;5059233;28;20197;-48
2023/02/18 03:36:35;;;;;;;5.03;4.60;;;6.70;99.90;;;;;;5059841;28;20684;-48
2023/02/18 03:39:07;;;;;;;4.93;4.53;;;6.60;99.90;;;;;;5049967;28;20244;-48
2023/02/18 03:41:35;;;;;;;5.67;4.63;;;6.60;99.90;;;;;;5064992;28;20227;-48
2023/02/18 03:44:05;;;;;;;3.83;3.53;;;6.50;99.90;;;;;;5058847;28;20262;-48
2023/02/18 03:46:34;;;;;;;3.00;2.27;;;6.50;99.90;;;;;;5058312;28;20196;-49
2023/02/18 03:49:01;;;;;;;3.23;2.00;;;6.50;99.90;;;;;;5056748;28;21833;-48
2023/02/18 03:51:28;;;;;;;3.13;2.30;;;6.70;99.90;;;;;;5049657;28;20755;-48
2023/02/18 03:53:56;;;;;;;5.30;1.90;;;6.80;99.90;;;;;;5048098;28;20199;-48
2023/02/18 03:56:23;;;;;;;2.87;1.97;;;7.00;99.90;;;;;;5053284;28;20656;-48
2023/02/18 03:58:50;;;;;;;4.23;1.80;;;7.00;99.90;;;;;;5055428;28;20199;-48
2023/02/18 04:01:17;;;;;;;3.67;1.27;;;6.90;99.90;;;;;;5049230;28;20643;-49
2023/02/18 04:03:44;;;;;;;2.03;1.63;;;6.90;99.90;;;;;;5060949;28;20215;-49
2023/02/18 04:06:11;;;;;;;4.00;1.70;;;6.90;99.90;;;;;;5055043;28;20211;-49
2023/02/18 04:08:38;;;;;;;1.97;1.03;;;6.90;99.90;;;;;;5053792;28;20219;-48
2023/02/18 04:11:07;;;;;;;1.43;1.33;;;6.90;99.90;;;;;;5049951;28;20291;-48
2023/02/18 04:13:34;;;;;;;4.23;1.57;;;6.90;99.90;;;;;;5064345;28;20671;-49
2023/02/18 04:16:01;;;;;;;3.47;1.83;;;7.00;99.90;;;;;;5047404;28;20195;-48
2023/02/18 04:18:28;;;;;;;2.73;1.27;;;7.00;99.90;;;;;;5048439;28;20277;-48
2023/02/18 04:20:55;;;;;;;1.70;1.10;;;7.00;99.90;;;;;;5057290;28;20583;-48
2023/02/18 04:23:22;;;;;;;3.03;1.07;;;6.90;99.90;;;;;;5057146;28;20204;-48
2023/02/18 04:25:49;;;;;;;1.10;1.00;;;6.90;99.90;;;;;;5059509;28;20727;-48
2023/02/18 04:28:17;;;;;;;2.13;1.53;;;6.80;99.90;;;;;;5056211;28;20855;-48
2023/02/18 04:30:45;;;;;;;2.23;1.30;;;6.80;99.90;;;;;;5050859;28;20218;-49
2023/02/18 04:33:12;;;;;;;1.43;1.23;;;6.70;99.90;;;;;;5049487;28;20243;-48
2023/02/18 04:35:40;;;;;;;1.10;1.00;;;6.70;99.90;;;;;;5061391;28;21057;-48
2023/02/18 04:38:07;;;;;;;1.10;0.93;;;6.70;99.90;;;;;;5060840;28;20226;-48
2023/02/18 04:40:34;;;;;;;1.20;0.90;;;6.60;99.90;;;;;;5049125;28;20240;-48
2023/02/18 04:43:01;;;;;;;3.67;1.70;;;6.60;99.90;;;;;;5055493;28;20219;-48
2023/02/18 04:45:30;;;;;;;1.90;1.53;;;6.60;99.90;;;;;;5045729;28;20269;-48
2023/02/18 04:47:57;;;;;;;2.27;1.23;;;6.60;99.90;;;;;;5052421;28;20199;-49
2023/02/18 04:50:24;;;;;;;2.00;1.50;;;6.60;99.90;;;;;;5043818;28;20216;-49
2023/02/18 04:52:51;;;;;;;1.40;1.30;;;6.50;99.90;;;;;;5057354;28;20280;-48
2023/02/18 04:55:18;;;;;;;5.20;1.70;;;6.50;99.90;;;;;;5047266;28;20265;-48
2023/02/18 04:57:45;;;;;;;3.20;1.77;;;6.50;99.90;;;;;;5050162;28;20580;-49
2023/02/18 05:00:16;;;;;;;3.00;1.57;;;6.50;99.90;;;;;;5055470;28;20680;-48
2023/02/18 05:02:45;;;;;;;2.17;1.83;;;6.50;99.90;;;;;;5052567;28;20222;-48
2023/02/18 05:05:13;;;;;;;1.47;1.37;;;6.40;99.90;;;;;;5062179;28;20195;-48
2023/02/18 05:07:41;;;;;;;2.03;1.83;;;6.40;99.90;;;;;;5057532;28;20618;-48
2023/02/18 05:10:09;;;;;;;3.60;2.20;;;6.40;99.90;;;;;;5049490;28;20227;-48
2023/02/18 05:12:38;;;;;;;4.07;1.93;;;6.40;99.90;;;;;;5049812;28;20337;-48
2023/02/18 05:15:06;;;;;;;2.00;1.90;;;6.40;99.90;;;;;;5058386;28;20269;-49
2023/02/18 05:17:34;;;;;;;2.03;1.80;;;6.30;99.90;;;;;;5055571;28;20267;-49
2023/02/18 05:20:02;;;;;;;4.93;2.63;;;6.20;99.90;;;;;;5048361;28;20242;-48
2023/02/18 05:22:29;;;;;;;1.77;1.63;;;6.10;99.90;;;;;;5057068;28;20273;-48
2023/02/18 05:24:56;;;;;;;3.20;2.10;;;6.00;99.90;;;;;;5052193;28;20249;-48
2023/02/18 05:27:23;;;;;;;3.87;1.40;;;5.90;99.90;;;;;;5053091;28;20245;-48
2023/02/18 05:29:50;;;;;;;1.57;1.47;;;5.90;99.90;;;;;;5046475;28;20276;-48
2023/02/18 05:32:17;;;;;;;2.70;1.40;;;5.80;99.90;;;;;;5066448;22;20234;-49
2023/02/18 05:34:44;;;;;;;1.93;1.80;;;5.80;99.90;;;;;;5031209;28;20626;-49
2023/02/18 05:37:13;;;;;;;4.07;1.80;;;5.70;99.90;;;;;;5029949;28;20867;-49
2023/02/18 05:39:40;;;;;;;1.80;1.70;;;5.60;99.90;;;;;;5040672;28;20201;-49
2023/02/18 05:42:07;;;;;;;1.53;1.47;;;5.60;99.90;;;;;;5036877;28;20194;-47
2023/02/18 05:44:34;;;;;;;3.07;1.87;;;5.50;99.90;;;;;;5045977;28;20249;-48
2023/02/18 05:47:03;;;;;;;2.30;1.50;;;5.50;99.90;;;;;;5044283;28;20523;-48
2023/02/18 05:49:31;;;;;;;1.50;1.40;;;5.50;99.90;;;;;;5034317;28;20290;-47
2023/02/18 05:51:59;;;;;;;5.63;1.43;;;5.60;99.90;;;;;;5037252;28;20284;-47
2023/02/18 05:54:28;;;;;;;1.70;1.17;;;5.80;99.90;;;;;;5042341;28;20203;-47
2023/02/18 05:56:55;;;;;;;0.80;0.80;;;5.90;99.90;;;;;;5039200;28;20727;-47
2023/02/18 05:59:22;;;;;;;1.80;0.90;;;5.90;99.90;;;;;;5049012;28;20734;-46
2023/02/18 06:01:49;;;;;;;3.40;0.90;;;6.00;99.90;;;;;;5044973;28;20232;-48
2023/02/18 06:04:16;;;;;;;0.70;0.70;;;6.20;99.90;;;;;;5046746;28;20278;-47
2023/02/18 06:06:43;;;;;;;1.30;1.00;;;6.20;99.90;;;;;;5037049;28;20203;-47
2023/02/18 06:09:10;;;;;;;1.03;1.03;;;6.40;99.90;;;;;;5038598;28;20282;-47
2023/02/18 06:11:39;;;;;;;4.13;1.03;;;6.50;99.90;;;;;;5046182;28;20625;-47
2023/02/18 06:14:06;;;;;;;3.73;0.97;;;6.50;99.90;;;;;;5037091;28;20269;-47
2023/02/18 06:16:33;;;;;;;3.13;1.10;;;6.40;99.90;;;;;;5026339;28;20204;-47
2023/02/18 06:19:00;;;;;;;1.73;1.63;;;6.30;99.90;;;;;;5040236;28;20196;-47
2023/02/18 06:21:28;;;;;;;5.03;1.23;;;6.20;99.90;;;;;;5033639;28;20259;-47
2023/02/18 06:23:55;;;;;;;1.30;1.20;;;6.10;99.90;;;;;;5032443;28;20303;-47
2023/02/18 06:26:22;;;;;;;2.40;1.17;;;6.20;99.90;;;;;;5034237;28;20220;-47
2023/02/18 06:28:50;;;;;;;1.70;1.60;;;6.10;99.90;;;;;;5033688;28;20200;-47
2023/02/18 06:31:17;;;;;;;2.90;1.70;;;6.10;99.90;;;;;;5038568;28;20218;-48
2023/02/18 06:33:44;;;;;;;3.87;1.67;;;6.10;99.90;;;;;;5035894;28;20298;-48
2023/02/18 06:36:12;;;;;;;5.53;3.40;;;6.10;99.90;;;;;;5028151;28;20199;-47
2023/02/18 06:38:40;;;;;;;3.50;3.07;;;6.10;99.90;;;;;;5033083;28;20208;-47
2023/02/18 06:41:07;;;;;;;5.67;3.13;;;6.00;99.90;;;;;;5033570;28;20250;-49
2023/02/18 06:43:35;;;;;;;3.37;2.57;;;6.00;99.90;;;;;;5033201;28;20289;-47
2023/02/18 06:46:04;;;;;;;2.80;1.83;;;6.00;99.90;;;;;;5032537;28;20319;-47
2023/02/18 06:48:31;;;;;;;2.53;2.00;;;6.10;99.90;;;;;;5032782;28;20200;-47
2023/02/18 06:50:58;;;;;;;1.80;1.63;;;6.10;99.90;;;;;;5019109;28;20215;-47
2023/02/18 06:53:25;;;;;;;5.20;2.07;;;6.10;99.90;;;;;;5039407;28;20319;-48
2023/02/18 06:55:52;;;;;;;4.07;3.20;;;6.10;99.90;;;;;;5027816;28;20208;-49
2023/02/18 06:58:19;;;;;;;7.50;4.90;;;6.10;99.90;;;;;;5032460;28;20249;-48
2023/02/18 07:00:46;;;;;;;5.27;4.77;;;6.20;99.90;;;;;;5029764;28;20201;-49
2023/02/18 07:03:15;;;;;;;8.87;5.67;;;6.30;99.90;;;;;;5031355;28;20229;-49
2023/02/18 07:05:42;;;;;;;9.47;6.20;;;6.80;99.90;;;;;;5045815;28;20253;-50
2023/02/18 07:08:10;;;;;;;6.20;5.60;;;7.20;99.90;;;;;;5038933;28;20247;-47
2023/02/18 07:10:37;;;;;;;5.80;4.83;;;7.40;99.90;;;;;;5032406;28;20224;-46
2023/02/18 07:13:04;;;;;;;4.67;2.83;;;7.40;99.90;;;;;;5031469;28;20217;-47
2023/02/18 07:15:32;;;;;;;4.23;2.47;;;7.40;99.90;;;;;;5032093;28;20665;-47
2023/02/18 07:17:59;;;;;;;2.13;1.30;;;7.30;99.90;;;;;;5030883;28;20626;-48
2023/02/18 07:20:27;;;;;;;1.83;1.60;;;7.30;99.90;;;;;;5033141;28;20203;-47
2023/02/18 07:22:54;;;;;;;1.50;1.30;;;7.20;99.90;;;;;;5031049;28;20214;-48
2023/02/18 07:25:22;;;;;;;1.80;1.60;;;7.20;99.90;;;;;;5035326;28;20203;-48
2023/02/18 07:27:49;;;;;;;2.20;1.37;;;7.20;99.90;;;;;;5033718;28;20201;-47
2023/02/18 07:30:17;;;;;;;1.47;1.37;;;7.20;99.90;;;;;;5038642;28;20279;-47
2023/02/18 07:32:44;;;;;;;1.60;1.50;;;7.30;99.90;;;;;;5028967;28;20309;-48
2023/02/18 07:35:13;;;;;;;7.23;1.70;;;7.50;99.90;;;;;;5037010;28;20195;-48
2023/02/18 07:37:43;;;;;;;1.93;1.00;;;7.60;99.90;;;;;;5034783;28;20200;-47
2023/02/18 07:40:14;;;;;;;1.30;1.00;;;7.70;99.90;;;;;;5041539;28;20252;-47
2023/02/18 07:42:42;;;;;;;2.33;1.40;;;7.70;99.90;;;;;;5027361;28;20230;-46
2023/02/18 07:45:10;;;;;;;6.33;2.53;;;7.70;99.90;;;;;;5039607;28;20256;-48
2023/02/18 07:47:40;;;;;;;3.07;2.70;;;7.60;99.90;;;;;;5033502;28;20715;-48
2023/02/18 07:50:08;;;;;;;5.37;3.10;;;7.60;99.90;;;;;;5035052;28;20224;-48
2023/02/18 07:52:40;;;;;;;4.13;1.90;;;7.80;99.90;;;;;;5028545;28;20275;-48
2023/02/18 07:55:08;;;;;;;4.43;1.30;;;8.20;99.90;;;;;;5032703;28;20200;-48
2023/02/18 07:57:56;;;;;;;2.10;1.77;;;8.70;99.90;;;;;;5049009;28;20254;-48
2023/02/18 08:00:23;;;;;;;2.60;1.40;;;9.30;99.90;;;;;;5052248;28;20199;-48
2023/02/18 08:02:50;;;;;;;1.80;1.10;;;10.00;99.90;;;;;;5039961;28;20282;-48
2023/02/18 08:05:17;;;;;;;1.07;1.03;;;10.70;99.90;;;;;;5038120;28;20194;-48
2023/02/18 08:07:45;;;;;;;0.90;0.90;;;11.40;99.90;;;;;;5033635;28;20203;-47
2023/02/18 08:10:12;;;;;;;2.97;1.00;;;12.00;99.90;;;;;;5031746;28;20220;-48
2023/02/18 08:12:39;;;;;;;9.10;1.37;;;12.20;99.90;;;;;;5031651;28;20221;-48
2023/02/18 08:15:06;;;;;;;2.20;1.17;;;12.40;99.90;;;;;;5036834;28;20258;-47
2023/02/18 08:17:35;;;;;;;1.73;0.90;;;12.80;99.90;;;;;;5034954;28;20274;-48
2023/02/18 08:20:02;;;;;;;5.53;1.53;;;12.90;99.90;;;;;;5031516;28;20270;-47
2023/02/18 08:22:29;;;;;;;4.77;1.97;;;12.50;99.90;;;;;;5031008;28;20223;-48
2023/02/18 08:24:58;;;;;;;4.63;1.27;;;12.30;99.90;;;;;;5036300;28;20246;-48
2023/02/18 08:27:25;;;;;;;8.57;2.77;;;12.20;99.90;;;;;;5041796;28;20200;-48
2023/02/18 08:29:52;;;;;;;4.17;3.30;;;12.40;99.90;;;;;;5043046;28;20202;-48
2023/02/18 08:32:19;;;;;;;5.10;2.43;;;12.50;99.90;;;;;;5040716;28;20650;-48
2023/02/18 08:34:45;;;;;;;3.93;1.10;;;12.40;99.90;;;;;;5035495;28;20263;-48
2023/02/18 08:37:13;;;;;;;1.90;1.80;;;12.20;99.90;;;;;;5037820;28;20246;-47
2023/02/18 08:39:40;;;;;;;1.70;1.13;;;12.20;99.90;;;;;;5031729;28;20209;-47
2023/02/18 08:42:08;;;;;;;3.47;1.10;;;12.20;99.90;;;;;;5030241;28;20197;-47
2023/02/18 08:44:35;;;;;;;0.90;0.90;;;12.30;99.90;;;;;;5033962;28;20260;-48
2023/02/18 08:47:02;;;;;;;2.77;1.20;;;12.50;99.90;;;;;;5039156;28;20205;-48
2023/02/18 08:49:29;;;;;;;0.93;0.93;;;12.60;99.90;;;;;;5031632;28;20253;-48
2023/02/18 08:51:56;;;;;;;2.37;0.77;;;12.60;99.90;;;;;;5030699;28;20216;-48
2023/02/18 08:54:23;;;;;;;3.93;1.00;;;12.70;99.90;;;;;;5033355;28;20306;-47
2023/02/18 08:56:50;;;;;;;1.37;0.90;;;12.80;99.90;;;;;;5039754;28;20198;-47
2023/02/18 08:59:18;;;;;;;6.50;0.70;;;13.10;99.90;;;;;;5031679;28;20589;-47
2023/02/18 09:01:45;;;;;;;2.07;0.80;;;13.30;99.90;;;;;;5030531;28;20250;-48
2023/02/18 09:04:12;;;;;;;0.40;0.40;;;13.60;99.90;;;;;;5033550;28;20776;-48
2023/02/18 09:06:39;;;;;;;1.30;0.60;;;13.90;99.90;;;;;;5039367;28;20198;-47
2023/02/18 09:09:07;;;;;;;3.47;0.60;;;14.00;99.90;;;;;;5022321;28;20213;-47
2023/02/18 09:11:34;;;;;;;0.87;0.80;;;14.40;99.90;;;;;;5026003;28;20237;-48
2023/02/18 09:14:01;;;;;;;3.10;1.10;;;14.90;99.90;;;;;;5035699;28;20221;-48
2023/02/18 09:16:30;;;;;;;2.37;1.00;;;15.40;99.90;;;;;;5043254;28;20198;-48
2023/02/18 09:18:57;;;;;;;0.87;0.83;;;15.90;99.90;;;;;;5035063;28;20256;-48
2023/02/18 09:21:26;;;;;;;3.40;0.57;;;16.40;99.90;;;;;;5036592;28;20233;-47
2023/02/18 09:23:53;;;;;;;2.53;1.37;;;16.10;99.90;;;;;;5038740;28;20219;-47
2023/02/18 09:26:22;;;;;;;0.97;0.87;;;16.00;99.90;;;;;;5049688;28;20202;-48
2023/02/18 09:28:49;;;;;;;1.53;1.20;;;16.50;99.90;;;;;;5054982;28;20280;-48
2023/02/18 09:31:22;;;;;;;1.97;1.10;;;16.80;99.90;;;;;;5054654;28;20217;-48
2023/02/18 09:33:52;;;;;;;2.10;1.57;;;16.70;99.90;;;;;;5040211;28;20728;-48
2023/02/18 09:36:20;;;;;;;4.13;1.13;;;15.90;99.90;;;;;;5034352;28;20256;-47
2023/02/18 09:38:47;;;;;;;5.43;1.20;;;15.30;99.90;;;;;;5053115;28;20669;-48
2023/02/18 09:41:22;;;;;;;2.00;1.20;;;14.80;99.90;;;;;;5055109;28;20243;-48
2023/02/18 09:43:51;;;;;;;6.13;2.27;;;15.10;99.90;;;;;;5040910;28;20279;-47
2023/02/18 09:46:21;;;;;;;4.33;1.13;;;15.30;99.90;;;;;;5040774;28;20194;-47
2023/02/18 09:48:51;;;;;;;2.43;0.93;;;16.00;99.90;;;;;;5050674;28;20213;-48
2023/02/18 09:51:19;;;;;;;3.90;1.53;;;16.20;99.90;;;;;;5041786;28;20214;-48
2023/02/18 09:53:46;;;;;;;2.87;1.63;;;16.30;99.90;;;;;;5040789;28;20631;-47
2023/02/18 09:56:17;;;;;;;3.13;1.60;;;16.30;99.90;;;;;;5039973;28;20240;-48
2023/02/18 09:58:45;;;;;;;5.20;1.30;;;16.50;99.90;;;;;;5054195;28;20201;-48
2023/02/18 10:01:18;;;;;;;2.50;1.07;;;16.80;99.90;;;;;;5054309;28;20860;-48
2023/02/18 10:03:46;;;;;;;4.60;1.30;;;16.90;99.90;;;;;;5041879;28;20276;-49
2023/02/18 10:06:18;;;;;;;1.70;1.37;;;17.10;99.90;;;;;;5039766;28;20194;-48
2023/02/18 10:08:48;;;;;;;4.23;1.33;;;16.70;99.90;;;;;;5053922;28;20210;-48
2023/02/18 10:11:17;;;;;;;1.27;1.17;;;17.10;99.90;;;;;;5031342;28;20222;-48
2023/02/18 10:13:45;;;;;;;4.73;1.67;;;17.10;99.90;;;;;;5032877;28;20218;-48
2023/02/18 10:16:17;;;;;;;2.57;1.87;;;17.50;99.90;;;;;;5038666;28;20205;-48
2023/02/18 10:18:48;;;;;;;1.33;1.30;;;18.10;99.90;;;;;;5034162;28;20272;-48
2023/02/18 10:21:20;;;;;;;3.23;1.70;;;18.10;99.90;;;;;;5033969;28;20230;-47
2023/02/18 10:23:58;;;;;;;3.97;1.67;;;17.80;99.90;;;;;;5036328;28;20222;-48
2023/02/18 10:26:25;;;;;;;1.40;1.30;;;17.70;99.90;;;;;;5030955;28;20198;-48
2023/02/18 10:28:53;;;;;;;3.47;1.27;;;17.40;99.90;;;;;;5022151;28;20199;-48
2023/02/18 10:31:25;;;;;;;3.20;1.50;;;17.20;99.90;;;;;;5031899;28;20845;-48
2023/02/18 10:33:59;;;;;;;3.53;1.03;;;17.20;99.90;;;;;;5036913;28;20659;-47
2023/02/18 10:36:36;;;;;;;1.77;1.67;;;17.60;99.90;;;;;;5040609;28;20253;-47
2023/02/18 10:39:24;;;;;;;2.40;1.00;;;17.60;99.90;;;;;;5041126;28;20625;-48
2023/02/18 10:42:00;;;;;;;1.73;1.57;;;17.30;99.90;;;;;;5045345;28;20197;-47
2023/02/18 10:44:33;;;;;;;3.17;1.60;;;17.30;99.90;;;;;;5049933;28;20231;-48
2023/02/18 10:47:12;;;;;;;1.13;1.13;;;17.30;99.90;;;;;;5037994;28;20498;-48
2023/02/18 10:49:59;;;;;;;1.57;1.23;;;17.10;99.90;;;;;;5045157;28;20624;-48
2023/02/18 10:52:30;;;;;;;3.03;1.47;;;16.80;99.90;;;;;;5044503;28;20221;-48
2023/02/18 10:55:04;;;;;;;3.33;1.83;;;16.60;99.90;;;;;;5046035;28;20203;-48
2023/02/18 10:57:32;;;;;;;3.80;0.90;;;16.70;99.90;;;;;;5045607;28;20280;-48
2023/02/18 11:00:09;;;;;;;2.10;1.17;;;16.70;99.90;;;;;;5037193;28;20197;-48
2023/02/18 11:02:39;;;;;;;5.82;3.33;;;16.80;99.90;;;;;;5043402;28;20466;-48
2023/02/18 11:05:19;;;;;;;1.73;1.63;;;16.90;99.90;;;;;;5036784;28;20201;-48
2023/02/18 11:07:50;;;;;;;4.60;2.20;;;16.70;99.90;;;;;;5034933;28;20217;-48
2023/02/18 11:10:22;;;;;;;2.63;2.13;;;16.60;99.90;;;;;;5030330;28;20369;-48
2023/02/18 11:12:51;;;;;;;2.60;1.97;;;16.50;99.90;;;;;;5031262;28;20241;-48
2023/02/18 11:15:22;;;;;;;1.57;1.47;;;16.60;99.90;;;;;;5032717;28;20247;-48
2023/02/18 11:17:51;;;;;;;2.07;1.43;;;16.50;99.90;;;;;;5032918;28;20206;-47
2023/02/18 11:20:24;;;;;;;1.20;1.20;;;16.50;99.90;;;;;;5030125;28;20660;-47
2023/02/18 11:22:57;;;;;;;1.13;0.80;;;16.60;99.90;;;;;;5030937;28;20218;-47
2023/02/18 11:25:26;;;;;;;4.53;1.57;;;16.70;99.90;;;;;;5047193;28;20247;-48
2023/02/18 11:27:56;;;;;;;7.17;2.10;;;16.60;99.90;;;;;;5043908;28;20201;-48
2023/02/18 11:30:27;;;;;;;1.67;0.98;;;16.50;99.90;;;;;;5034950;28;20844;-48
2023/02/18 11:32:58;;;;;;;1.70;0.70;;;16.60;99.90;;;;;;5054726;22;20518;-48
2023/02/18 11:35:27;;;;;;;0.70;0.70;;;16.60;99.90;;;;;;5032067;28;20210;-48
2023/02/18 11:37:58;;;;;;;1.23;0.90;;;16.60;99.90;;;;;;5038076;28;20207;-49
2023/02/18 11:40:28;;;;;;;2.50;1.10;;;16.50;99.90;;;;;;5034687;28;20739;-48
2023/02/18 11:43:04;;;;;;;0.90;0.90;;;16.60;99.90;;;;;;5024501;28;20225;-47
2023/02/18 11:45:33;;;;;;;1.17;0.90;;;16.60;99.90;;;;;;5029912;28;20221;-47
2023/02/18 11:48:02;;;;;;;4.00;0.90;;;16.70;99.90;;;;;;5020562;28;20683;-47
2023/02/18 11:50:33;;;;;;;1.37;1.17;;;16.80;99.90;;;;;;5022100;28;20202;-48
2023/02/18 11:53:25;;;;;;;1.35;1.23;;;16.60;99.90;;;;;;5023002;28;20516;-47
2023/02/18 11:55:55;;;;;;;1.83;0.77;;;16.50;99.90;;;;;;5031153;28;20214;-49
2023/02/18 11:58:23;;;;;;;1.03;1.00;;;16.50;99.90;;;;;;5034909;28;20301;-47
2023/02/18 12:00:51;;;;;;;0.80;0.80;;;16.40;99.90;;;;;;5028120;28;20568;-49
2023/02/18 12:03:34;;;;;;;1.40;1.30;;;16.30;99.90;;;;;;5028914;28;20321;-50
2023/02/18 12:06:04;;;;;;;50.23;28.77;;;16.40;99.90;;;;;;5025235;28;20208;-48
2023/02/18 12:08:40;;;;;;;3.40;3.10;;;16.40;99.90;;;;;;5025762;28;20249;-48
2023/02/18 12:11:15;;;;;;;0.90;0.90;;;16.30;99.90;;;;;;5032797;28;20220;-48
2023/02/18 12:13:49;;;;;;;0.80;0.80;;;16.00;99.90;;;;;;5040804;28;20232;-48
2023/02/18 12:16:25;;;;;;;1.47;0.87;;;15.90;99.90;;;;;;5037402;28;20278;-48
2023/02/18 12:19:04;;;;;;;0.80;0.70;;;16.00;99.90;;;;;;5037300;28;20205;-49
2023/02/18 12:21:38;;;;;;;0.70;0.70;;;16.10;99.90;;;;;;5023640;28;20669;-47
2023/02/18 12:24:20;;;;;;;1.43;1.30;;;16.20;99.90;;;;;;5025273;28;20222;-47
2023/02/18 12:26:59;;;;;;;0.73;0.73;;;16.20;99.90;;;;;;5026342;28;20906;-47
2023/02/18 12:29:43;;;;;;;0.70;0.60;;;16.40;99.90;;;;;;5022056;28;20345;-47
2023/02/18 12:32:28;;;;;;;3.33;0.80;;;16.30;99.90;;;;;;5026773;28;20792;-47
2023/02/18 12:35:11;;;;;;;0.63;0.53;;;16.30;99.90;;;;;;5036258;28;20256;-48
2023/02/18 12:37:54;;;;;;;0.60;0.60;;;16.20;99.90;;;;;;5037072;28;20190;-49
2023/02/18 12:40:40;;;;;;;1.73;0.93;;;16.20;99.90;;;;;;5031368;28;20210;-48
2023/02/18 12:43:19;;;;;;;0.80;0.80;;;16.40;99.90;;;;;;5022817;28;20305;-47
2023/02/18 12:46:01;;;;;;;2.60;0.63;;;16.40;99.90;;;;;;5026708;28;20664;-48
2023/02/18 12:49:00;;;;;;;1.87;0.83;;;16.50;99.90;;;;;;5033305;28;20260;-48
2023/02/18 12:51:39;;;;;;;0.93;0.93;;;16.50;99.90;;;;;;5028489;28;20280;-48
2023/02/18 12:54:19;;;;;;;0.77;0.77;;;16.40;99.90;;;;;;5025634;28;20801;-49
2023/02/18 12:57:07;;;;;;;3.47;1.10;;;16.30;99.90;;;;;;5031214;28;20704;-49
2023/02/18 12:59:59;;;;;;;2.07;1.80;;;16.40;99.90;;;;;;5042549;28;20206;-48
2023/02/18 13:02:49;;;;;;;1.27;1.00;;;16.60;99.90;;;;;;5032455;28;20671;-48
2023/02/18 13:05:31;;;;;;;1.60;0.80;;;16.30;99.90;;;;;;5038878;28;20201;-49
2023/02/18 13:08:12;;;;;;;3.53;1.23;;;16.40;99.90;;;;;;5033338;28;20202;-48
2023/02/18 13:11:01;;;;;;;2.37;2.20;;;16.40;99.90;;;;;;5034382;28;20297;-48